Time;durP1;ratioP1;P1;durP2;ratioP2;P2;SDS_P1;SDS_P2;PMS_P1;PMS_P2;Temp;Humidity;BMP_temperature;BMP_pressure;BME280_temperature;BME280_humidity;BME280_pressure;Samples;Min_cycle;Max_cycle;Signal;HPM_P1;HPM_P2
2023/05/08 00:01:30;;;;;;;71.18;29.77;;;;;;;;;;5049087;28;20053;-77
2023/05/08 00:03:57;;;;;;;67.85;29.40;;;;;;;;;;5048187;28;20033;-77
2023/05/08 00:06:26;;;;;;;54.13;28.92;;;;;;;;;;5049941;28;20037;-76
2023/05/08 00:08:56;;;;;;;76.32;30.90;;;;;;;;;;5048468;28;20052;-76
2023/05/08 00:11:23;;;;;;;70.28;31.35;;;;;;;;;;5047303;28;20044;-77
2023/05/08 00:13:51;;;;;;;76.43;33.72;;;;;;;;;;5045519;28;20057;-76
2023/05/08 00:16:18;;;;;;;76.88;33.35;;;;;;;;;;5036313;28;20079;-76
2023/05/08 00:18:45;;;;;;;80.95;34.78;;;;;;;;;;5021080;28;20049;-77
2023/05/08 00:21:13;;;;;;;78.72;33.85;;;;;;;;;;5022314;28;20048;-76
2023/05/08 00:23:40;;;;;;;90.93;36.83;;;;;;;;;;5047289;28;20511;-76
2023/05/08 00:26:07;;;;;;;89.10;37.10;;;;;;;;;;5038682;28;20398;-76
2023/05/08 00:28:34;;;;;;;64.22;35.10;;;;;;;;;;5045613;28;20041;-76
2023/05/08 00:31:01;;;;;;;77.40;35.47;;;;;;;;;;5036774;28;20049;-76
2023/05/08 00:33:28;;;;;;;75.22;34.17;;;;;;;;;;5044249;28;20092;-76
2023/05/08 00:36:01;;;;;;;87.20;37.13;;;;;;;;;;5016268;28;20087;-76
2023/05/08 00:38:28;;;;;;;;;;;;;;;;;;5029411;28;20045;-76
2023/05/08 00:40:55;;;;;;;87.15;34.33;;;;;;;;;;5009476;28;19921;-76
2023/05/08 00:43:25;;;;;;;71.05;35.50;;;;;;;;;;5032757;28;20041;-75
2023/05/08 00:45:53;;;;;;;84.40;38.03;;;;;;;;;;5029400;28;20394;-76
2023/05/08 00:48:22;;;;;;;81.40;39.83;;;;;;;;;;5044473;28;20049;-77
2023/05/08 00:50:50;;;;;;;94.28;43.33;;;;;;;;;;5043982;28;20110;-76
2023/05/08 00:53:18;;;;;;;71.55;40.53;;;;;;;;;;5029158;28;20045;-78
2023/05/08 00:55:46;;;;;;;83.78;44.90;;;;;;;;;;5032605;28;20418;-77
2023/05/08 00:58:13;;;;;;;74.07;45.47;;;;;;;;;;5029723;28;20061;-77
2023/05/08 01:00:40;;;;;;;85.03;48.33;;;;;;;;;;5049383;28;20041;-76
2023/05/08 01:03:08;;;;;;;79.65;46.45;;;;;;;;;;5046327;28;20060;-77
2023/05/08 01:05:35;;;;;;;75.43;47.53;;;;;;;;;;5042486;28;20049;-77
2023/05/08 01:08:02;;;;;;;98.38;56.42;;;;;;;;;;5047273;28;20045;-76
2023/05/08 01:11:05;;;;;;;109.97;62.58;;;;;;;;;;5031119;28;20540;-77
2023/05/08 01:13:32;;;;;;;97.72;67.13;;;;;;;;;;4992342;28;20560;-76
2023/05/08 01:16:06;;;;;;;98.65;63.92;;;;;;;;;;4960126;28;20042;-77
2023/05/08 01:18:41;;;;;;;98.90;66.93;;;;;;;;;;4975826;28;20053;-77
2023/05/08 01:21:35;;;;;;;95.90;66.55;;;;;;;;;;4971606;28;20046;-76
2023/05/08 01:24:17;;;;;;;129.23;79.07;;;;;;;;;;4973862;28;20046;-77
2023/05/08 01:26:47;;;;;;;152.02;87.18;;;;;;;;;;4959697;28;20047;-76
2023/05/08 01:29:17;;;;;;;99.65;69.90;;;;;;;;;;4981242;28;20062;-76
2023/05/08 01:32:14;;;;;;;90.70;66.00;;;;;;;;;;4960350;28;20046;-76
2023/05/08 01:34:50;;;;;;;105.68;65.82;;;;;;;;;;4969062;28;20114;-76
2023/05/08 01:37:22;;;;;;;86.00;62.80;;;;;;;;;;4976608;28;20141;-77
2023/05/08 01:40:10;;;;;;;115.97;59.35;;;;;;;;;;4972267;28;20053;-76
2023/05/08 01:42:56;;;;;;;72.72;52.83;;;;;;;;;;4958056;28;20043;-76
2023/05/08 01:45:30;;;;;;;92.45;56.33;;;;;;;;;;4973032;28;20054;-76
2023/05/08 01:48:07;;;;;;;119.15;64.53;;;;;;;;;;5020249;28;20049;-76
2023/05/08 01:50:37;;;;;;;148.25;72.47;;;;;;;;;;5045629;28;20061;-76
2023/05/08 01:53:25;;;;;;;140.13;83.65;;;;;;;;;;5053963;28;20056;-76
2023/05/08 01:55:55;;;;;;;148.20;96.63;;;;;;;;;;5030911;28;20041;-76
2023/05/08 01:58:23;;;;;;;158.38;108.35;;;;;;;;;;5037392;28;20037;-76
2023/05/08 02:03:38;;;;;;;121.13;88.55;;;;;;;;;;4964783;28;20114;-69
2023/05/08 02:06:06;;;;;;;101.60;76.95;;;;;;;;;;4952620;28;20427;-70
2023/05/08 02:08:33;;;;;;;106.47;78.15;;;;;;;;;;4933759;28;20457;-73
2023/05/08 02:11:03;;;;;;;119.07;81.93;;;;;;;;;;4952038;28;20043;-68
2023/05/08 02:13:30;;;;;;;149.85;101.03;;;;;;;;;;4954535;28;20051;-69
2023/05/08 02:15:58;;;;;;;152.40;102.70;;;;;;;;;;4953034;28;20492;-68
2023/05/08 02:18:26;;;;;;;120.68;98.03;;;;;;;;;;4953075;28;20059;-68
2023/05/08 02:20:55;;;;;;;186.32;109.50;;;;;;;;;;4928956;29;20066;-71
2023/05/08 02:23:23;;;;;;;168.75;114.80;;;;;;;;;;4936473;29;20517;-68
2023/05/08 02:25:51;;;;;;;149.57;111.28;;;;;;;;;;4968784;28;20539;-67
2023/05/08 02:28:18;;;;;;;130.02;97.97;;;;;;;;;;4967410;28;20560;-68
2023/05/08 02:30:46;;;;;;;149.35;105.85;;;;;;;;;;4935477;29;20063;-68
2023/05/08 02:33:14;;;;;;;162.63;112.38;;;;;;;;;;4967238;28;20453;-68
2023/05/08 02:35:42;;;;;;;208.25;125.13;;;;;;;;;;4966186;28;20409;-71
2023/05/08 02:38:10;;;;;;;172.25;120.60;;;;;;;;;;4935866;29;20445;-68
2023/05/08 02:40:40;;;;;;;178.57;112.55;;;;;;;;;;4952408;28;20439;-71
2023/05/08 02:43:07;;;;;;;165.80;116.45;;;;;;;;;;4965780;28;20049;-68
2023/05/08 02:45:38;;;;;;;150.85;112.38;;;;;;;;;;4954645;28;20098;-70
2023/05/08 02:48:11;;;;;;;170.98;101.65;;;;;;;;;;4950500;28;20094;-73
2023/05/08 02:50:44;;;;;;;152.30;93.82;;;;;;;;;;4964343;28;20081;-70
2023/05/08 02:53:11;;;;;;;;;;;;;;;;;;4938058;29;20053;-72
2023/05/08 02:55:48;;;;;;;125.35;78.15;;;;;;;;;;4951653;28;19922;-68
2023/05/08 02:58:28;;;;;;;93.78;68.57;;;;;;;;;;4951115;29;20548;-69
2023/05/08 03:01:20;;;;;;;123.15;65.72;;;;;;;;;;4948123;29;20487;-69
2023/05/08 03:03:52;;;;;;;124.97;67.25;;;;;;;;;;4948799;28;20086;-67
2023/05/08 03:06:21;;;;;;;90.65;57.00;;;;;;;;;;4933424;29;20043;-69
2023/05/08 03:08:50;;;;;;;154.57;62.90;;;;;;;;;;4950250;29;20489;-72
2023/05/08 03:11:20;;;;;;;131.02;59.00;;;;;;;;;;4965551;28;20058;-70
2023/05/08 03:13:48;;;;;;;63.53;50.50;;;;;;;;;;4965103;28;20155;-68
2023/05/08 03:16:19;;;;;;;80.70;46.40;;;;;;;;;;4923989;29;20512;-68
2023/05/08 03:18:55;;;;;;;105.50;49.53;;;;;;;;;;4942853;28;20087;-68
2023/05/08 03:21:25;;;;;;;88.53;47.95;;;;;;;;;;4955378;28;20536;-70
2023/05/08 03:23:53;;;;;;;140.27;56.08;;;;;;;;;;4926595;28;20061;-74
2023/05/08 03:26:23;;;;;;;81.63;46.80;;;;;;;;;;4935560;29;20058;-69
2023/05/08 03:28:51;;;;;;;94.50;50.55;;;;;;;;;;4966670;28;20138;-68
2023/05/08 03:31:22;;;;;;;90.88;48.53;;;;;;;;;;4949763;29;20094;-69
2023/05/08 03:33:52;;;;;;;77.95;48.60;;;;;;;;;;4941537;28;20506;-68
2023/05/08 03:36:21;;;;;;;90.85;49.95;;;;;;;;;;4909531;29;20063;-74
2023/05/08 03:38:48;;;;;;;110.97;51.92;;;;;;;;;;4951453;29;20067;-68
2023/05/08 03:41:15;;;;;;;84.63;47.33;;;;;;;;;;4952518;29;20505;-69
2023/05/08 03:43:42;;;;;;;85.57;47.30;;;;;;;;;;4951268;29;20043;-71
2023/05/08 03:46:10;;;;;;;116.85;52.78;;;;;;;;;;4923124;29;20051;-72
2023/05/08 03:48:37;;;;;;;90.20;46.83;;;;;;;;;;4926606;29;20082;-69
2023/05/08 03:51:05;;;;;;;64.65;43.80;;;;;;;;;;4928501;28;20126;-68
2023/05/08 03:53:35;;;;;;;92.43;45.90;;;;;;;;;;4964755;28;20062;-72
2023/05/08 03:56:05;;;;;;;91.07;48.17;;;;;;;;;;4958981;28;20079;-69
2023/05/08 03:58:39;;;;;;;94.95;44.10;;;;;;;;;;4944766;29;20067;-69
2023/05/08 04:01:11;;;;;;;62.67;39.65;;;;;;;;;;4964184;28;20059;-73
2023/05/08 04:03:47;;;;;;;102.25;44.58;;;;;;;;;;4949493;29;20065;-73
2023/05/08 04:06:19;;;;;;;87.45;41.47;;;;;;;;;;4947237;28;20046;-69
2023/05/08 04:08:58;;;;;;;111.15;41.88;;;;;;;;;;4926992;28;20525;-68
2023/05/08 04:11:49;;;;;;;105.85;41.38;;;;;;;;;;4970640;28;20063;-68
2023/05/08 04:14:18;;;;;;;73.40;34.25;;;;;;;;;;4934144;29;20056;-69
2023/05/08 04:16:57;;;;;;;115.88;33.55;;;;;;;;;;4954433;28;20054;-71
2023/05/08 04:19:27;;;;;;;62.03;28.20;;;;;;;;;;4937238;29;20047;-69
2023/05/08 04:21:57;;;;;;;95.53;22.38;;;;;;;;;;4932906;29;20044;-69
2023/05/08 04:24:26;;;;;;;61.17;17.05;;;;;;;;;;4954200;28;20055;-71
2023/05/08 04:26:54;;;;;;;110.85;16.27;;;;;;;;;;4952943;29;20061;-74
2023/05/08 04:29:21;;;;;;;106.07;16.50;;;;;;;;;;4952652;28;20507;-72
2023/05/08 04:31:50;;;;;;;54.08;14.35;;;;;;;;;;4939492;29;20047;-69
2023/05/08 04:34:17;;;;;;;44.63;19.77;;;;;;;;;;4928170;28;20043;-73
2023/05/08 04:36:45;;;;;;;70.32;13.57;;;;;;;;;;4968976;28;20047;-69
2023/05/08 04:39:12;;;;;;;58.45;13.52;;;;;;;;;;4953022;28;20074;-70
2023/05/08 04:41:40;;;;;;;76.43;16.63;;;;;;;;;;4969217;28;20075;-72
2023/05/08 04:44:07;;;;;;;45.60;21.27;;;;;;;;;;4953768;28;20460;-69
2023/05/08 04:46:34;;;;;;;80.93;55.50;;;;;;;;;;4952927;28;20417;-69
2023/05/08 04:49:01;;;;;;;83.13;57.40;;;;;;;;;;4965560;28;20051;-74
2023/05/08 04:51:30;;;;;;;96.50;51.92;;;;;;;;;;4953967;28;20051;-69
2023/05/08 04:53:58;;;;;;;89.65;65.22;;;;;;;;;;4932276;28;20105;-68
2023/05/08 04:56:26;;;;;;;63.75;56.25;;;;;;;;;;4953641;28;20472;-71
2023/05/08 04:58:56;;;;;;;100.50;60.80;;;;;;;;;;4953706;28;20051;-71
2023/05/08 05:01:24;;;;;;;87.30;56.55;;;;;;;;;;4950315;28;20043;-69
2023/05/08 05:03:51;;;;;;;105.65;61.40;;;;;;;;;;4934020;29;20604;-71
2023/05/08 05:06:18;;;;;;;84.43;69.00;;;;;;;;;;4934992;29;20118;-72
2023/05/08 05:08:46;;;;;;;109.20;66.18;;;;;;;;;;4934839;29;20047;-70
2023/05/08 05:11:14;;;;;;;82.85;50.17;;;;;;;;;;4934346;29;20537;-74
2023/05/08 05:13:41;;;;;;;72.45;52.97;;;;;;;;;;4916189;29;20075;-70
2023/05/08 05:16:08;;;;;;;58.25;46.72;;;;;;;;;;4933338;29;20497;-69
2023/05/08 05:18:35;;;;;;;63.47;42.40;;;;;;;;;;4933382;29;20461;-70
2023/05/08 05:21:02;;;;;;;79.43;60.00;;;;;;;;;;4933048;29;20553;-70
2023/05/08 05:23:30;;;;;;;61.67;54.85;;;;;;;;;;4935806;29;20039;-68
2023/05/08 05:25:58;;;;;;;86.38;58.03;;;;;;;;;;4933275;29;20505;-70
2023/05/08 05:28:27;;;;;;;85.47;74.47;;;;;;;;;;4907171;29;20048;-71
2023/05/08 05:30:54;;;;;;;105.65;95.80;;;;;;;;;;4949297;29;20064;-70
2023/05/08 05:33:21;;;;;;;117.68;85.60;;;;;;;;;;4932776;29;20446;-73
2023/05/08 05:35:49;;;;;;;145.02;91.20;;;;;;;;;;4934567;29;20055;-68
2023/05/08 05:38:17;;;;;;;83.55;75.53;;;;;;;;;;4934093;29;20055;-69
2023/05/08 05:40:44;;;;;;;125.43;97.20;;;;;;;;;;4932150;29;20051;-72
2023/05/08 05:43:11;;;;;;;154.50;139.57;;;;;;;;;;4934415;29;20500;-74
2023/05/08 05:45:40;;;;;;;131.35;120.40;;;;;;;;;;4949060;29;20111;-69
2023/05/08 05:48:07;;;;;;;126.68;115.57;;;;;;;;;;4934996;29;20048;-70
2023/05/08 05:50:36;;;;;;;124.72;114.30;;;;;;;;;;4932171;29;20130;-69
2023/05/08 05:53:05;;;;;;;102.07;93.22;;;;;;;;;;4937025;29;20055;-69
2023/05/08 05:55:34;;;;;;;105.57;94.65;;;;;;;;;;4933496;29;20054;-72
2023/05/08 05:58:01;;;;;;;106.68;96.57;;;;;;;;;;4916325;29;20040;-72
2023/05/08 06:00:30;;;;;;;103.95;95.38;;;;;;;;;;4925084;29;20131;-72
2023/05/08 06:02:58;;;;;;;108.20;86.15;;;;;;;;;;4945590;29;20063;-69
2023/05/08 06:05:25;;;;;;;102.93;93.03;;;;;;;;;;4953472;29;20524;-69
2023/05/08 06:07:52;;;;;;;122.90;110.07;;;;;;;;;;4952477;29;20401;-73
2023/05/08 06:10:19;;;;;;;118.32;106.47;;;;;;;;;;4967012;28;20098;-70
2023/05/08 06:12:47;;;;;;;139.63;110.57;;;;;;;;;;4966431;28;20058;-68
2023/05/08 06:15:14;;;;;;;115.18;103.70;;;;;;;;;;4951619;28;20079;-70
2023/05/08 06:17:44;;;;;;;139.93;106.78;;;;;;;;;;4967204;28;20087;-71
2023/05/08 06:20:12;;;;;;;107.97;96.97;;;;;;;;;;4951228;28;20476;-74
2023/05/08 06:22:40;;;;;;;96.03;86.63;;;;;;;;;;4952180;28;20114;-76
2023/05/08 06:25:08;;;;;;;73.32;67.20;;;;;;;;;;4966530;28;20054;-72
2023/05/08 06:27:36;;;;;;;79.10;71.65;;;;;;;;;;4952474;28;20055;-69
2023/05/08 06:30:06;;;;;;;98.40;73.53;;;;;;;;;;4935257;28;20511;-70
2023/05/08 06:32:34;;;;;;;74.90;64.60;;;;;;;;;;4952519;28;20070;-72
2023/05/08 06:35:01;;;;;;;75.88;56.40;;;;;;;;;;4951990;28;20051;-70
2023/05/08 06:37:28;;;;;;;68.68;59.42;;;;;;;;;;4947048;28;20764;-70
2023/05/08 06:39:55;;;;;;;81.05;59.35;;;;;;;;;;4948437;29;20047;-72
2023/05/08 06:42:37;;;;;;;67.35;60.35;;;;;;;;;;4950924;28;20043;-70
2023/05/08 06:45:06;;;;;;;59.35;53.05;;;;;;;;;;4950921;29;20106;-69
2023/05/08 06:47:33;;;;;;;78.38;62.03;;;;;;;;;;4953221;29;20048;-71
2023/05/08 06:50:00;;;;;;;76.63;61.92;;;;;;;;;;4952706;28;20044;-69
2023/05/08 06:52:31;;;;;;;70.60;53.38;;;;;;;;;;4951149;28;20054;-74
2023/05/08 06:54:58;;;;;;;87.55;58.85;;;;;;;;;;4952596;28;20078;-69
2023/05/08 06:57:28;;;;;;;97.00;52.80;;;;;;;;;;4950450;29;20061;-69
2023/05/08 06:59:55;;;;;;;93.85;53.25;;;;;;;;;;4936124;28;20048;-73
2023/05/08 07:02:22;;;;;;;58.92;53.63;;;;;;;;;;4932840;29;20063;-69
2023/05/08 07:04:50;;;;;;;115.35;78.95;;;;;;;;;;4932814;29;20051;-69
2023/05/08 07:07:17;;;;;;;101.30;83.53;;;;;;;;;;4935278;29;20396;-70
2023/05/08 07:09:44;;;;;;;81.47;73.20;;;;;;;;;;4915760;29;20054;-69
2023/05/08 07:12:11;;;;;;;100.78;82.03;;;;;;;;;;4931354;29;20371;-74
2023/05/08 07:14:39;;;;;;;79.88;69.07;;;;;;;;;;4933185;29;20043;-76
2023/05/08 07:17:06;;;;;;;64.45;58.05;;;;;;;;;;4910946;29;20040;-71
2023/05/08 07:19:37;;;;;;;95.85;58.50;;;;;;;;;;4932092;29;20083;-69
2023/05/08 07:22:04;;;;;;;61.13;48.08;;;;;;;;;;4932616;29;20485;-71
2023/05/08 07:24:32;;;;;;;53.65;49.08;;;;;;;;;;4932805;29;20048;-73
2023/05/08 07:27:00;;;;;;;83.68;46.40;;;;;;;;;;4932888;29;20054;-69
2023/05/08 07:29:27;;;;;;;56.38;37.95;;;;;;;;;;4932338;29;20082;-69
2023/05/08 07:31:54;;;;;;;59.35;34.97;;;;;;;;;;4931305;29;20052;-70
2023/05/08 07:34:21;;;;;;;45.55;31.83;;;;;;;;;;4933397;29;20131;-69
2023/05/08 07:36:48;;;;;;;92.13;28.33;;;;;;;;;;4931279;29;20387;-69
2023/05/08 07:39:15;;;;;;;66.63;27.20;;;;;;;;;;4932013;29;20043;-70
2023/05/08 07:41:42;;;;;;;72.43;19.20;;;;;;;;;;4933087;29;20098;-71
2023/05/08 07:44:09;;;;;;;45.38;11.02;;;;;;;;;;4937357;28;20084;-71
2023/05/08 07:46:36;;;;;;;44.05;9.23;;;;;;;;;;4950863;28;20131;-72
2023/05/08 07:49:04;;;;;;;51.67;8.25;;;;;;;;;;4934759;29;20069;-71
2023/05/08 07:51:31;;;;;;;42.72;9.05;;;;;;;;;;4934763;29;20494;-69
2023/05/08 07:53:58;;;;;;;79.85;10.32;;;;;;;;;;4935064;29;20494;-69
2023/05/08 07:56:26;;;;;;;38.72;7.38;;;;;;;;;;4935813;29;20512;-69
2023/05/08 07:58:53;;;;;;;50.17;10.13;;;;;;;;;;4929053;29;20587;-71
2023/05/08 08:01:20;;;;;;;44.67;7.57;;;;;;;;;;4935935;29;20044;-69
2023/05/08 08:03:47;;;;;;;56.90;6.45;;;;;;;;;;4929357;29;20052;-68
2023/05/08 08:06:14;;;;;;;32.78;5.03;;;;;;;;;;4936419;29;20761;-69
2023/05/08 08:08:41;;;;;;;61.72;6.78;;;;;;;;;;4935299;29;20052;-69
2023/05/08 08:11:08;;;;;;;42.13;4.88;;;;;;;;;;4951827;29;20048;-71
2023/05/08 08:13:35;;;;;;;36.00;4.82;;;;;;;;;;4936483;29;20047;-68
2023/05/08 08:16:05;;;;;;;53.90;6.50;;;;;;;;;;4938268;29;20052;-69
2023/05/08 08:18:35;;;;;;;40.05;5.03;;;;;;;;;;4934901;29;20071;-69
2023/05/08 08:21:06;;;;;;;57.67;6.47;;;;;;;;;;4936308;29;20075;-69
2023/05/08 08:23:33;;;;;;;20.65;4.15;;;;;;;;;;4937434;29;20049;-71
2023/05/08 08:26:00;;;;;;;48.80;5.68;;;;;;;;;;4934486;29;20078;-69
2023/05/08 08:28:27;;;;;;;26.88;4.35;;;;;;;;;;4932556;29;20375;-73
2023/05/08 08:30:54;;;;;;;41.08;5.32;;;;;;;;;;4931040;29;20078;-70
2023/05/08 08:33:21;;;;;;;33.55;4.88;;;;;;;;;;4914804;29;20504;-70
2023/05/08 08:35:48;;;;;;;73.40;7.82;;;;;;;;;;4934538;29;20089;-70
2023/05/08 08:38:15;;;;;;;28.67;4.55;;;;;;;;;;4935077;29;20461;-69
2023/05/08 08:40:43;;;;;;;56.22;6.28;;;;;;;;;;4931923;29;20413;-76
2023/05/08 08:43:10;;;;;;;35.25;4.38;;;;;;;;;;4930916;29;20043;-70
2023/05/08 08:45:37;;;;;;;34.72;4.72;;;;;;;;;;4931972;29;20087;-68
2023/05/08 08:48:08;;;;;;;60.67;6.57;;;;;;;;;;4934981;29;20405;-70
2023/05/08 08:50:35;;;;;;;87.13;8.85;;;;;;;;;;4936015;29;20043;-69
2023/05/08 08:53:20;;;;;;;33.28;4.78;;;;;;;;;;4947527;29;20450;-70
2023/05/08 08:55:50;;;;;;;33.22;4.75;;;;;;;;;;4935930;29;20450;-70
2023/05/08 08:58:25;;;;;;;26.73;4.45;;;;;;;;;;4937349;29;20075;-69
2023/05/08 09:00:53;;;;;;;31.08;4.03;;;;;;;;;;4912449;29;20066;-68
2023/05/08 09:03:20;;;;;;;46.33;6.22;;;;;;;;;;4931588;29;20461;-71
2023/05/08 09:05:48;;;;;;;64.88;7.78;;;;;;;;;;4955255;28;20501;-70
2023/05/08 09:08:17;;;;;;;21.38;3.58;;;;;;;;;;4939948;29;20565;-69
2023/05/08 09:10:45;;;;;;;42.72;5.47;;;;;;;;;;4957089;28;20059;-72
2023/05/08 09:13:11;;;;;;;28.23;4.47;;;;;;;;;;4969246;28;20154;-72
2023/05/08 09:15:38;;;;;;;23.20;3.75;;;;;;;;;;4955746;28;20058;-72
2023/05/08 09:18:05;;;;;;;52.42;6.18;;;;;;;;;;4954635;28;20392;-69
2023/05/08 09:20:33;;;;;;;44.75;5.47;;;;;;;;;;4956493;28;20138;-69
2023/05/08 09:23:03;;;;;;;47.20;5.25;;;;;;;;;;4937077;29;20102;-71
2023/05/08 09:25:43;;;;;;;40.90;5.07;;;;;;;;;;4952677;28;20180;-69
2023/05/08 09:28:23;;;;;;;43.67;5.72;;;;;;;;;;4937889;29;20318;-69
2023/05/08 09:30:51;;;;;;;49.55;5.45;;;;;;;;;;4952931;28;20129;-69
2023/05/08 09:33:18;;;;;;;43.78;5.32;;;;;;;;;;4939082;28;20402;-69
2023/05/08 09:35:47;;;;;;;56.13;6.47;;;;;;;;;;4954231;28;20047;-70
2023/05/08 09:38:33;;;;;;;30.88;4.03;;;;;;;;;;4954310;28;20052;-70
2023/05/08 09:41:14;;;;;;;39.28;4.82;;;;;;;;;;4955713;28;20051;-70
2023/05/08 09:43:42;;;;;;;24.02;3.75;;;;;;;;;;4949834;28;20063;-70
2023/05/08 09:46:20;;;;;;;55.67;6.50;;;;;;;;;;4937352;28;20046;-68
2023/05/08 09:48:47;;;;;;;71.35;7.15;;;;;;;;;;4948143;28;20106;-72
2023/05/08 09:51:14;;;;;;;34.13;4.65;;;;;;;;;;4936156;29;20051;-70
2023/05/08 09:53:41;;;;;;;29.20;4.20;;;;;;;;;;4954178;29;20070;-70
2023/05/08 09:56:08;;;;;;;31.08;4.18;;;;;;;;;;4955942;28;20050;-68
2023/05/08 09:58:42;;;;;;;41.25;5.55;;;;;;;;;;4953213;28;20106;-69
2023/05/08 10:01:28;;;;;;;43.55;5.00;;;;;;;;;;4952996;29;20043;-70
2023/05/08 10:03:55;;;;;;;56.65;6.63;;;;;;;;;;4953108;28;20039;-70
2023/05/08 10:06:22;;;;;;;44.10;6.05;;;;;;;;;;4954221;28;20038;-70
2023/05/08 10:09:04;;;;;;;69.50;8.10;;;;;;;;;;4966299;28;20055;-70
2023/05/08 10:11:31;;;;;;;29.95;4.25;;;;;;;;;;4949619;29;20051;-72
2023/05/08 10:14:00;;;;;;;42.25;5.45;;;;;;;;;;4955919;28;20058;-74
2023/05/08 10:16:28;;;;;;;32.05;4.68;;;;;;;;;;4964077;28;20053;-75
2023/05/08 10:18:59;;;;;;;37.75;4.75;;;;;;;;;;4954580;28;20047;-71
2023/05/08 10:21:34;;;;;;;36.60;4.53;;;;;;;;;;4964681;28;20050;-75
2023/05/08 10:24:03;;;;;;;46.92;5.50;;;;;;;;;;4968333;28;20135;-68
2023/05/08 10:26:31;;;;;;;42.35;5.32;;;;;;;;;;4954143;28;20043;-70
2023/05/08 10:29:03;;;;;;;52.00;5.70;;;;;;;;;;4953323;28;20061;-72
2023/05/08 10:31:32;;;;;;;56.03;6.20;;;;;;;;;;4943804;28;20058;-69
2023/05/08 10:34:04;;;;;;;47.47;5.68;;;;;;;;;;4954880;28;20039;-72
2023/05/08 10:36:32;;;;;;;38.53;4.35;;;;;;;;;;4952469;29;20499;-70
2023/05/08 10:38:59;;;;;;;57.17;6.50;;;;;;;;;;4968309;28;20106;-68
2023/05/08 10:41:26;;;;;;;38.92;4.82;;;;;;;;;;4950835;28;20047;-68
2023/05/08 10:43:54;;;;;;;35.47;4.60;;;;;;;;;;4967152;28;20051;-69
2023/05/08 10:46:27;;;;;;;40.95;4.63;;;;;;;;;;4966709;28;20572;-69
2023/05/08 10:49:00;;;;;;;101.72;8.70;;;;;;;;;;4951821;28;20090;-70
2023/05/08 10:51:27;;;;;;;50.67;6.07;;;;;;;;;;4936838;29;20046;-69
2023/05/08 10:53:58;;;;;;;93.47;9.07;;;;;;;;;;4967652;28;20094;-76
2023/05/08 10:56:26;;;;;;;31.60;3.88;;;;;;;;;;4939241;29;20102;-71
2023/05/08 10:58:57;;;;;;;47.40;4.85;;;;;;;;;;4966732;28;20504;-70
2023/05/08 11:01:25;;;;;;;46.15;5.80;;;;;;;;;;4965597;28;20031;-73
2023/05/08 11:03:54;;;;;;;31.88;4.15;;;;;;;;;;4932155;29;20048;-68
2023/05/08 11:06:41;;;;;;;39.90;4.63;;;;;;;;;;4933336;29;20078;-71
2023/05/08 11:09:13;;;;;;;47.42;5.10;;;;;;;;;;4933129;29;20123;-69
2023/05/08 11:11:44;;;;;;;23.42;3.38;;;;;;;;;;4949033;29;20048;-68
2023/05/08 11:14:15;;;;;;;35.30;4.00;;;;;;;;;;4931000;29;20081;-71
2023/05/08 11:17:01;;;;;;;32.78;4.00;;;;;;;;;;4931878;29;20110;-71
2023/05/08 11:19:28;;;;;;;58.38;5.55;;;;;;;;;;4926722;29;20044;-69
2023/05/08 11:22:10;;;;;;;38.40;4.72;;;;;;;;;;4931729;29;20044;-69
2023/05/08 11:24:38;;;;;;;69.72;7.10;;;;;;;;;;4935659;29;20127;-70
2023/05/08 11:27:05;;;;;;;27.60;3.67;;;;;;;;;;4934625;29;20051;-69
2023/05/08 11:29:34;;;;;;;27.63;3.75;;;;;;;;;;4934264;29;20077;-69
2023/05/08 11:32:02;;;;;;;50.28;5.38;;;;;;;;;;4931188;29;20109;-70
2023/05/08 11:34:41;;;;;;;37.53;4.65;;;;;;;;;;4934181;29;20051;-69
2023/05/08 11:37:10;;;;;;;49.97;5.57;;;;;;;;;;4929025;29;20051;-69
2023/05/08 11:39:37;;;;;;;29.23;3.70;;;;;;;;;;4924615;29;20052;-69
2023/05/08 11:42:23;;;;;;;41.42;4.55;;;;;;;;;;4932097;29;20047;-70
2023/05/08 11:45:03;;;;;;;65.35;6.15;;;;;;;;;;4932254;29;20055;-69
2023/05/08 11:47:35;;;;;;;36.53;4.53;;;;;;;;;;4916560;29;20052;-72
2023/05/08 11:50:02;;;;;;;60.53;5.63;;;;;;;;;;4934330;29;20040;-71
2023/05/08 11:52:36;;;;;;;25.27;3.33;;;;;;;;;;4932763;29;20048;-69
2023/05/08 11:55:04;;;;;;;55.03;5.57;;;;;;;;;;4915026;29;20048;-71
2023/05/08 11:57:32;;;;;;;47.88;5.53;;;;;;;;;;4931315;29;20059;-70
2023/05/08 12:00:09;;;;;;;78.40;8.02;;;;;;;;;;4932286;29;20048;-69
2023/05/08 12:02:40;;;;;;;69.05;6.93;;;;;;;;;;4924860;29;20106;-68
2023/05/08 12:05:08;;;;;;;32.78;4.28;;;;;;;;;;4932470;29;20058;-72
2023/05/08 12:07:46;;;;;;;83.38;20.02;;;;;;;;;;4932920;29;20054;-69
2023/05/08 12:10:14;;;;;;;38.65;4.70;;;;;;;;;;4935167;29;20047;-69
2023/05/08 12:12:42;;;;;;;37.15;4.47;;;;;;;;;;4933757;29;20054;-69
2023/05/08 12:15:13;;;;;;;55.38;5.93;;;;;;;;;;4931030;29;20062;-68
2023/05/08 12:17:40;;;;;;;19.90;3.72;;;;;;;;;;4933673;29;20055;-69
2023/05/08 12:20:12;;;;;;;49.22;5.57;;;;;;;;;;4932327;29;20044;-69
2023/05/08 12:22:41;;;;;;;64.72;6.47;;;;;;;;;;4927377;29;20050;-70
2023/05/08 12:25:09;;;;;;;25.60;3.65;;;;;;;;;;4932220;29;20052;-69
2023/05/08 12:27:36;;;;;;;31.38;4.07;;;;;;;;;;4932908;29;20044;-69
2023/05/08 12:30:07;;;;;;;40.08;4.85;;;;;;;;;;4935430;29;20056;-70
2023/05/08 12:32:38;;;;;;;22.85;3.88;;;;;;;;;;4926088;29;20056;-69
2023/05/08 12:35:08;;;;;;;30.73;3.88;;;;;;;;;;4936570;29;20055;-69
2023/05/08 12:37:35;;;;;;;21.15;3.10;;;;;;;;;;4926952;29;20059;-70
2023/05/08 12:40:02;;;;;;;35.42;4.18;;;;;;;;;;4936132;29;20040;-69
2023/05/08 12:42:44;;;;;;;33.00;3.78;;;;;;;;;;4940183;29;20086;-69
2023/05/08 12:45:18;;;;;;;14.27;2.90;;;;;;;;;;4936119;29;20070;-71
2023/05/08 12:47:44;;;;;;;;;;;;;;;;;;4937225;29;20155;-71
2023/05/08 12:50:13;;;;;;;30.75;3.58;;;;;;;;;;4934979;29;20025;-70
2023/05/08 12:52:40;;;;;;;33.25;4.60;;;;;;;;;;4938226;29;20469;-69
2023/05/08 12:55:18;;;;;;;19.27;3.10;;;;;;;;;;4935663;29;20075;-75
2023/05/08 12:57:45;;;;;;;23.30;3.22;;;;;;;;;;4949751;29;20051;-68
2023/05/08 13:00:14;;;;;;;35.92;3.80;;;;;;;;;;4937939;29;20043;-69
2023/05/08 13:02:50;;;;;;;31.00;3.95;;;;;;;;;;4930298;29;20051;-69
2023/05/08 13:05:20;;;;;;;24.08;3.78;;;;;;;;;;4936563;29;20066;-70
2023/05/08 13:07:47;;;;;;;38.05;6.18;;;;;;;;;;4935630;29;20071;-69
2023/05/08 13:10:14;;;;;;;11.45;2.67;;;;;;;;;;4935966;29;20039;-68
2023/05/08 13:12:41;;;;;;;56.05;5.40;;;;;;;;;;4937108;29;20051;-69
2023/05/08 13:15:08;;;;;;;30.58;3.88;;;;;;;;;;4936014;29;20071;-69
2023/05/08 13:17:35;;;;;;;24.27;3.60;;;;;;;;;;4936180;29;20058;-69
2023/05/08 13:20:04;;;;;;;25.95;3.30;;;;;;;;;;4935240;29;20131;-70
2023/05/08 13:22:31;;;;;;;41.78;10.20;;;;;;;;;;4949780;29;20473;-71
2023/05/08 13:24:58;;;;;;;46.20;7.82;;;;;;;;;;4935248;29;20062;-67
2023/05/08 13:27:25;;;;;;;35.03;7.65;;;;;;;;;;4935806;29;20367;-67
2023/05/08 13:29:51;;;;;;;100.07;13.38;;;;;;;;;;4935183;29;20048;-73
2023/05/08 13:32:18;;;;;;;76.15;10.60;;;;;;;;;;4935757;29;20072;-68
2023/05/08 13:34:44;;;;;;;67.40;10.85;;;;;;;;;;4933864;29;20454;-70
2023/05/08 13:37:16;;;;;;;56.85;8.48;;;;;;;;;;4930971;29;20035;-76
2023/05/08 13:39:43;;;;;;;55.78;8.85;;;;;;;;;;4932343;29;20102;-65
2023/05/08 13:42:10;;;;;;;65.40;8.07;;;;;;;;;;4935024;29;20087;-64
2023/05/08 13:44:36;;;;;;;29.95;6.32;;;;;;;;;;4934979;29;20054;-65
2023/05/08 13:47:03;;;;;;;42.20;8.27;;;;;;;;;;4927409;29;20442;-71
2023/05/08 13:49:29;;;;;;;28.75;8.05;;;;;;;;;;4935168;29;20043;-70
2023/05/08 13:51:56;;;;;;;43.00;8.25;;;;;;;;;;4935266;29;20050;-70
2023/05/08 13:54:23;;;;;;;35.40;6.97;;;;;;;;;;4935195;29;20071;-71
2023/05/08 13:56:49;;;;;;;74.97;11.93;;;;;;;;;;4935174;29;20401;-71
2023/05/08 13:59:16;;;;;;;46.97;9.52;;;;;;;;;;4934992;29;20134;-70
2023/05/08 14:01:42;;;;;;;58.70;9.65;;;;;;;;;;4935724;29;20071;-74
2023/05/08 14:04:09;;;;;;;53.95;11.18;;;;;;;;;;4953969;28;20053;-70
2023/05/08 14:06:36;;;;;;;34.58;8.32;;;;;;;;;;4955746;28;20413;-70
2023/05/08 14:09:02;;;;;;;78.47;11.55;;;;;;;;;;4928870;29;20047;-70
2023/05/08 14:11:29;;;;;;;58.40;10.05;;;;;;;;;;4954480;29;20047;-70
2023/05/08 14:13:56;;;;;;;53.13;14.95;;;;;;;;;;4953813;29;20093;-71
2023/05/08 14:16:23;;;;;;;39.92;8.93;;;;;;;;;;4952381;28;20039;-72
2023/05/08 14:18:49;;;;;;;53.28;9.38;;;;;;;;;;4953322;29;20055;-73
2023/05/08 14:21:16;;;;;;;44.15;8.63;;;;;;;;;;4950352;28;20489;-76
2023/05/08 14:23:43;;;;;;;36.92;7.38;;;;;;;;;;4950261;29;20465;-73
2023/05/08 14:26:10;;;;;;;32.03;7.05;;;;;;;;;;4951997;28;20058;-71
2023/05/08 14:28:37;;;;;;;43.40;9.35;;;;;;;;;;4952962;28;20075;-70
2023/05/08 14:31:03;;;;;;;36.72;7.10;;;;;;;;;;4952522;29;20109;-70
2023/05/08 14:33:30;;;;;;;82.13;11.93;;;;;;;;;;4951589;28;20039;-70
2023/05/08 14:35:56;;;;;;;97.47;12.00;;;;;;;;;;4968526;28;20058;-71
2023/05/08 14:38:23;;;;;;;98.68;91.50;;;;;;;;;;4955177;28;20118;-69